AFR1822 LFPG-EDDM
Flight info
| Callsign | AFR1822 |
|---|---|
| Flight time | 1h 5m |
| Altitude | 33000 |
| Route | LANVI DCT LUPEN T107 ROKIL |
| Aircraft | E195/M-SDE3GILORVW/S |
Departure
| Time | 2026-05-01 13:23 |
|---|---|
| Airport | Charles de Gaulle International Airport (LFPG) |
Arrival
| Time | 2026-05-01 14:28 |
|---|---|
| Airport | Munich Airport (EDDM) |
| Time | Latitude | Longitude | Altitude | Speed | Heading |
|---|---|---|---|---|---|
| 2026-05-01 13:07 | 49.00718 | 2.58007 | 349 ft | 0 kts | 232° |
| 2026-05-01 13:12 | 49.00725 | 2.58021 | 349 ft | 2 kts | 232° |
| 2026-05-01 13:13 | 49.00734 | 2.58039 | 349 ft | 2 kts | 232° |
| 2026-05-01 13:13 | 49.00744 | 2.58057 | 349 ft | 2 kts | 232° |
| 2026-05-01 13:13 | 49.00751 | 2.58077 | 348 ft | 2 kts | 260° |
| 2026-05-01 13:13 | 49.00750 | 2.58099 | 348 ft | 2 kts | 288° |
| 2026-05-01 13:14 | 49.00743 | 2.58118 | 348 ft | 2 kts | 316° |
| 2026-05-01 13:14 | 49.00731 | 2.58130 | 347 ft | 2 kts | 344° |
| 2026-05-01 13:14 | 49.00722 | 2.58132 | 347 ft | 0 kts | 355° |
| 2026-05-01 13:16 | 49.00723 | 2.58132 | 347 ft | 0 kts | 355° |
| 2026-05-01 13:16 | 49.00769 | 2.58126 | 348 ft | 14 kts | 355° |
| 2026-05-01 13:16 | 49.00875 | 2.58101 | 348 ft | 16 kts | 330° |
| 2026-05-01 13:17 | 49.00877 | 2.57549 | 355 ft | 18 kts | 265° |
| 2026-05-01 13:17 | 49.00866 | 2.57345 | 357 ft | 22 kts | 265° |
| 2026-05-01 13:18 | 49.00840 | 2.56851 | 359 ft | 23 kts | 265° |
| 2026-05-01 13:18 | 49.00826 | 2.56597 | 358 ft | 24 kts | 266° |
| 2026-05-01 13:18 | 49.00803 | 2.56330 | 356 ft | 26 kts | 262° |
| 2026-05-01 13:18 | 49.00777 | 2.56046 | 353 ft | 28 kts | 262° |
| 2026-05-01 13:19 | 49.00749 | 2.55751 | 349 ft | 21 kts | 262° |
| 2026-05-01 13:19 | 49.00731 | 2.55517 | 345 ft | 23 kts | 266° |
| 2026-05-01 13:19 | 49.00544 | 2.55288 | 340 ft | 22 kts | 164° |
| 2026-05-01 13:20 | 49.00386 | 2.55356 | 339 ft | 24 kts | 166° |
| 2026-05-01 13:20 | 49.00220 | 2.55429 | 338 ft | 25 kts | 164° |
| 2026-05-01 13:20 | 49.00053 | 2.55502 | 338 ft | 24 kts | 164° |
| 2026-05-01 13:21 | 48.99863 | 2.55639 | 338 ft | 17 kts | 125° |
| 2026-05-01 13:21 | 48.99820 | 2.55810 | 340 ft | 17 kts | 105° |
| 2026-05-01 13:21 | 48.99797 | 2.55961 | 342 ft | 14 kts | 103° |
| 2026-05-01 13:21 | 48.99704 | 2.56035 | 342 ft | 19 kts | 176° |
| 2026-05-01 13:22 | 48.99619 | 2.56140 | 342 ft | 20 kts | 86° |
| 2026-05-01 13:22 | 48.99641 | 2.56616 | 347 ft | 77 kts | 86° |
| 2026-05-01 13:22 | 48.99703 | 2.57750 | 343 ft | 136 kts | 85° |
| 2026-05-01 13:22 | 48.99786 | 2.59436 | 426 ft | 172 kts | 88° |
| 2026-05-01 13:23 | 48.99875 | 2.61319 | 804 ft | 190 kts | 87° |
| 2026-05-01 13:23 | 48.99987 | 2.63300 | 1702 ft | 185 kts | 86° |
| 2026-05-01 13:23 | 49.00095 | 2.65267 | 2343 ft | 197 kts | 87° |
| 2026-05-01 13:23 | 49.00211 | 2.67420 | 2891 ft | 214 kts | 87° |
| 2026-05-01 13:24 | 49.00335 | 2.69738 | 3573 ft | 224 kts | 87° |
| 2026-05-01 13:24 | 49.00460 | 2.72131 | 4215 ft | 235 kts | 87° |
| 2026-05-01 13:24 | 49.00590 | 2.74629 | 4942 ft | 242 kts | 87° |
| 2026-05-01 13:25 | 49.00425 | 2.79952 | 6144 ft | 271 kts | 100° |
| 2026-05-01 13:25 | 49.00138 | 2.82819 | 6964 ft | 279 kts | 100° |
| 2026-05-01 13:25 | 48.99851 | 2.85725 | 7920 ft | 279 kts | 100° |
| 2026-05-01 13:25 | 48.99564 | 2.88616 | 8861 ft | 279 kts | 100° |
| 2026-05-01 13:26 | 48.99279 | 2.91487 | 9751 ft | 280 kts | 100° |
| 2026-05-01 13:26 | 48.98988 | 2.94406 | 10586 ft | 282 kts | 101° |
| 2026-05-01 13:26 | 48.98718 | 2.97418 | 11215 ft | 293 kts | 99° |
| 2026-05-01 13:26 | 48.98455 | 3.00574 | 11666 ft | 309 kts | 99° |
| 2026-05-01 13:27 | 48.98181 | 3.03874 | 12094 ft | 325 kts | 99° |
| 2026-05-01 13:27 | 48.97891 | 3.07346 | 12624 ft | 337 kts | 99° |
| 2026-05-01 13:27 | 48.97293 | 3.14465 | 14105 ft | 345 kts | 100° |
| 2026-05-01 13:28 | 48.96681 | 3.21689 | 15675 ft | 348 kts | 100° |
| 2026-05-01 13:28 | 48.96368 | 3.25368 | 16390 ft | 352 kts | 100° |
| 2026-05-01 13:29 | 48.95734 | 3.32758 | 17744 ft | 360 kts | 100° |
| 2026-05-01 13:29 | 48.95075 | 3.40395 | 19135 ft | 367 kts | 100° |
| 2026-05-01 13:30 | 48.93746 | 3.55953 | 21808 ft | 381 kts | 97° |
| 2026-05-01 13:31 | 48.93337 | 3.63892 | 23057 ft | 387 kts | 97° |
| 2026-05-01 13:31 | 48.92675 | 3.76337 | 24937 ft | 397 kts | 97° |
| 2026-05-01 13:32 | 48.92220 | 3.84756 | 26093 ft | 404 kts | 97° |
| 2026-05-01 13:33 | 48.91510 | 3.97665 | 27715 ft | 415 kts | 97° |
| 2026-05-01 13:33 | 48.91021 | 4.06386 | 28734 ft | 422 kts | 97° |
| 2026-05-01 13:34 | 48.90511 | 4.15376 | 29764 ft | 428 kts | 97° |
| 2026-05-01 13:34 | 48.89331 | 4.24279 | 30707 ft | 430 kts | 112° |
| 2026-05-01 13:35 | 48.86574 | 4.32346 | 31568 ft | 435 kts | 120° |
| 2026-05-01 13:35 | 48.85101 | 4.36360 | 32003 ft | 438 kts | 120° |
| 2026-05-01 13:35 | 48.82128 | 4.44463 | 32985 ft | 440 kts | 120° |
| 2026-05-01 13:36 | 48.80667 | 4.48437 | 33173 ft | 436 kts | 120° |
| 2026-05-01 13:36 | 48.76141 | 4.60716 | 33204 ft | 448 kts | 120° |
| 2026-05-01 13:37 | 48.73084 | 4.68976 | 33203 ft | 449 kts | 121° |
| 2026-05-01 13:37 | 48.70036 | 4.77187 | 33212 ft | 450 kts | 121° |
| 2026-05-01 13:38 | 48.65427 | 4.89555 | 33220 ft | 451 kts | 121° |
| 2026-05-01 13:39 | 48.62341 | 4.97802 | 33221 ft | 452 kts | 121° |
| 2026-05-01 13:39 | 48.59239 | 5.06067 | 33216 ft | 450 kts | 121° |
| 2026-05-01 13:40 | 48.56144 | 5.14288 | 33219 ft | 452 kts | 121° |
| 2026-05-01 13:40 | 48.53051 | 5.22480 | 33219 ft | 451 kts | 121° |
| 2026-05-01 13:41 | 48.49922 | 5.30737 | 33218 ft | 453 kts | 121° |
| 2026-05-01 13:41 | 48.46791 | 5.38976 | 33222 ft | 453 kts | 121° |
| 2026-05-01 13:42 | 48.43644 | 5.47233 | 33223 ft | 454 kts | 120° |
| 2026-05-01 13:42 | 48.40498 | 5.55459 | 33224 ft | 455 kts | 120° |
| 2026-05-01 13:43 | 48.37318 | 5.63749 | 33224 ft | 456 kts | 120° |
| 2026-05-01 13:43 | 48.34143 | 5.72001 | 33223 ft | 456 kts | 121° |
| 2026-05-01 13:44 | 48.31938 | 5.80902 | 33229 ft | 460 kts | 102° |
| 2026-05-01 13:44 | 48.31628 | 5.90485 | 33235 ft | 463 kts | 84° |
| 2026-05-01 13:45 | 48.32584 | 6.00067 | 33244 ft | 462 kts | 84° |
| 2026-05-01 13:45 | 48.33290 | 6.09678 | 33241 ft | 463 kts | 85° |
| 2026-05-01 13:46 | 48.33955 | 6.19253 | 33240 ft | 463 kts | 85° |
| 2026-05-01 13:46 | 48.34613 | 6.28873 | 33240 ft | 463 kts | 85° |
| 2026-05-01 13:47 | 48.35263 | 6.38500 | 33231 ft | 463 kts | 85° |
| 2026-05-01 13:47 | 48.35906 | 6.48155 | 33230 ft | 464 kts | 84° |
| 2026-05-01 13:48 | 48.36541 | 6.57807 | 33229 ft | 464 kts | 84° |
| 2026-05-01 13:48 | 48.37167 | 6.67452 | 33230 ft | 464 kts | 85° |
| 2026-05-01 13:49 | 48.37769 | 6.76829 | 33234 ft | 464 kts | 85° |
| 2026-05-01 13:49 | 48.38382 | 6.86526 | 33241 ft | 464 kts | 85° |
| 2026-05-01 13:50 | 48.38984 | 6.96176 | 33241 ft | 464 kts | 85° |
| 2026-05-01 13:50 | 48.39580 | 7.05859 | 33242 ft | 465 kts | 85° |
| 2026-05-01 13:51 | 48.40169 | 7.15563 | 33243 ft | 465 kts | 85° |
| 2026-05-01 13:51 | 48.40745 | 7.25193 | 33242 ft | 464 kts | 85° |
| 2026-05-01 13:52 | 48.41318 | 7.34893 | 33243 ft | 464 kts | 84° |
| 2026-05-01 13:52 | 48.41876 | 7.44492 | 33237 ft | 463 kts | 84° |
| 2026-05-01 13:53 | 48.42432 | 7.54204 | 33244 ft | 464 kts | 84° |
| 2026-05-01 13:53 | 48.43246 | 7.68678 | 33246 ft | 464 kts | 85° |
| 2026-05-01 13:54 | 48.43647 | 7.78355 | 33251 ft | 465 kts | 87° |
| 2026-05-01 13:54 | 48.43890 | 7.88065 | 33247 ft | 465 kts | 87° |
| 2026-05-01 13:55 | 48.44134 | 7.97819 | 33245 ft | 466 kts | 87° |
| 2026-05-01 13:55 | 48.44369 | 8.07529 | 33255 ft | 465 kts | 87° |
| 2026-05-01 13:56 | 48.44596 | 8.17228 | 33263 ft | 465 kts | 87° |
| 2026-05-01 13:56 | 48.44816 | 8.26984 | 33272 ft | 465 kts | 87° |
| 2026-05-01 13:57 | 48.44992 | 8.35082 | 33268 ft | 465 kts | 86° |
| 2026-05-01 13:57 | 48.45229 | 8.46388 | 33268 ft | 465 kts | 86° |
| 2026-05-01 13:58 | 48.45423 | 8.56101 | 33267 ft | 465 kts | 86° |
| 2026-05-01 13:58 | 48.45610 | 8.65844 | 33274 ft | 464 kts | 87° |
| 2026-05-01 13:59 | 48.45787 | 8.75553 | 33271 ft | 464 kts | 87° |
| 2026-05-01 13:59 | 48.45957 | 8.85241 | 33267 ft | 459 kts | 87° |
| 2026-05-01 14:00 | 48.46037 | 8.90013 | 33261 ft | 447 kts | 87° |
| 2026-05-01 14:00 | 48.46113 | 8.94657 | 33272 ft | 444 kts | 87° |
| 2026-05-01 14:00 | 48.46212 | 9.03931 | 33059 ft | 449 kts | 88° |
| 2026-05-01 14:01 | 48.46220 | 9.08669 | 32565 ft | 448 kts | 88° |
| 2026-05-01 14:01 | 48.46228 | 9.13292 | 32079 ft | 445 kts | 88° |
| 2026-05-01 14:01 | 48.46235 | 9.17927 | 31588 ft | 440 kts | 88° |
| 2026-05-01 14:01 | 48.46241 | 9.22479 | 31109 ft | 435 kts | 88° |
| 2026-05-01 14:02 | 48.46244 | 9.26994 | 30637 ft | 432 kts | 88° |
| 2026-05-01 14:02 | 48.46246 | 9.31501 | 30160 ft | 428 kts | 88° |
| 2026-05-01 14:02 | 48.46247 | 9.35975 | 29686 ft | 425 kts | 88° |
| 2026-05-01 14:02 | 48.46245 | 9.40394 | 29219 ft | 421 kts | 88° |
| 2026-05-01 14:03 | 48.46242 | 9.44805 | 28754 ft | 418 kts | 88° |
| 2026-05-01 14:03 | 48.46237 | 9.49114 | 28299 ft | 414 kts | 88° |
| 2026-05-01 14:03 | 48.46230 | 9.53452 | 27839 ft | 411 kts | 88° |
| 2026-05-01 14:03 | 48.46222 | 9.57748 | 27389 ft | 408 kts | 88° |
| 2026-05-01 14:04 | 48.46213 | 9.61943 | 26943 ft | 405 kts | 88° |
| 2026-05-01 14:04 | 48.46202 | 9.66197 | 26494 ft | 402 kts | 89° |
| 2026-05-01 14:04 | 48.46201 | 9.70341 | 26060 ft | 399 kts | 88° |
| 2026-05-01 14:04 | 48.46213 | 9.73122 | 25767 ft | 396 kts | 88° |
| 2026-05-01 14:05 | 48.46234 | 9.78522 | 25197 ft | 393 kts | 88° |
| 2026-05-01 14:05 | 48.46249 | 9.82614 | 24760 ft | 389 kts | 88° |
| 2026-05-01 14:05 | 48.46262 | 9.86680 | 24335 ft | 387 kts | 88° |
| 2026-05-01 14:05 | 48.46273 | 9.90709 | 23908 ft | 384 kts | 88° |
| 2026-05-01 14:06 | 48.46283 | 9.94696 | 23485 ft | 382 kts | 88° |
| 2026-05-01 14:06 | 48.46292 | 9.98657 | 23069 ft | 379 kts | 88° |
| 2026-05-01 14:06 | 48.46299 | 10.02614 | 22647 ft | 376 kts | 88° |
| 2026-05-01 14:06 | 48.46305 | 10.06557 | 22234 ft | 374 kts | 88° |
| 2026-05-01 14:07 | 48.46309 | 10.10442 | 21828 ft | 371 kts | 89° |
| 2026-05-01 14:07 | 48.46312 | 10.14285 | 21418 ft | 369 kts | 89° |
| 2026-05-01 14:07 | 48.46314 | 10.18118 | 21017 ft | 366 kts | 88° |
| 2026-05-01 14:08 | 48.46314 | 10.25720 | 20217 ft | 361 kts | 89° |
| 2026-05-01 14:08 | 48.46312 | 10.29473 | 19821 ft | 359 kts | 89° |
| 2026-05-01 14:08 | 48.46308 | 10.33244 | 19424 ft | 357 kts | 89° |
| 2026-05-01 14:08 | 48.46304 | 10.36959 | 19034 ft | 355 kts | 89° |
| 2026-05-01 14:09 | 48.46299 | 10.40642 | 18648 ft | 352 kts | 89° |
| 2026-05-01 14:09 | 48.46292 | 10.44285 | 18256 ft | 349 kts | 89° |
| 2026-05-01 14:09 | 48.46284 | 10.47959 | 17875 ft | 347 kts | 89° |
| 2026-05-01 14:09 | 48.46275 | 10.51566 | 17492 ft | 345 kts | 89° |
| 2026-05-01 14:10 | 48.46266 | 10.55129 | 17120 ft | 344 kts | 89° |
| 2026-05-01 14:10 | 48.46254 | 10.58747 | 16741 ft | 342 kts | 89° |
| 2026-05-01 14:10 | 48.46440 | 10.62284 | 16370 ft | 340 kts | 81° |
| 2026-05-01 14:10 | 48.46738 | 10.65657 | 16015 ft | 338 kts | 82° |
| 2026-05-01 14:11 | 48.47055 | 10.69290 | 15635 ft | 336 kts | 82° |
| 2026-05-01 14:11 | 48.47654 | 10.76202 | 14889 ft | 333 kts | 82° |
| 2026-05-01 14:11 | 48.47953 | 10.79669 | 14537 ft | 332 kts | 82° |
| 2026-05-01 14:12 | 48.48247 | 10.83087 | 14174 ft | 330 kts | 82° |
| 2026-05-01 14:12 | 48.48538 | 10.86488 | 13816 ft | 328 kts | 82° |
| 2026-05-01 14:12 | 48.48829 | 10.89903 | 13450 ft | 327 kts | 82° |
| 2026-05-01 14:12 | 48.49114 | 10.93256 | 13098 ft | 325 kts | 82° |
| 2026-05-01 14:13 | 48.49400 | 10.96630 | 12737 ft | 319 kts | 82° |
| 2026-05-01 14:13 | 48.49584 | 10.98803 | 12500 ft | 313 kts | 82° |
| 2026-05-01 14:13 | 48.49943 | 11.03054 | 12043 ft | 300 kts | 82° |
| 2026-05-01 14:13 | 48.50201 | 11.06114 | 11719 ft | 291 kts | 82° |
| 2026-05-01 14:14 | 48.50453 | 11.09119 | 11398 ft | 283 kts | 82° |
| 2026-05-01 14:14 | 48.50694 | 11.12001 | 11095 ft | 278 kts | 82° |
| 2026-05-01 14:14 | 48.50935 | 11.14881 | 10796 ft | 277 kts | 82° |
| 2026-05-01 14:14 | 48.51178 | 11.17806 | 10489 ft | 277 kts | 82° |
| 2026-05-01 14:15 | 48.51471 | 11.20661 | 10323 ft | 274 kts | 77° |
| 2026-05-01 14:15 | 48.51864 | 11.23379 | 10300 ft | 260 kts | 77° |
| 2026-05-01 14:15 | 48.52242 | 11.26010 | 10302 ft | 257 kts | 77° |
| 2026-05-01 14:15 | 48.52623 | 11.28665 | 10311 ft | 258 kts | 77° |
| 2026-05-01 14:16 | 48.53000 | 11.31306 | 10315 ft | 259 kts | 77° |
| 2026-05-01 14:16 | 48.53383 | 11.33986 | 10324 ft | 259 kts | 77° |
| 2026-05-01 14:16 | 48.53761 | 11.36642 | 10306 ft | 259 kts | 77° |
| 2026-05-01 14:16 | 48.54138 | 11.39294 | 10310 ft | 260 kts | 77° |
| 2026-05-01 14:17 | 48.54516 | 11.41954 | 10317 ft | 259 kts | 77° |
| 2026-05-01 14:17 | 48.54891 | 11.44601 | 10315 ft | 259 kts | 77° |
| 2026-05-01 14:17 | 48.55259 | 11.47205 | 10308 ft | 249 kts | 77° |
| 2026-05-01 14:17 | 48.55617 | 11.49739 | 10286 ft | 242 kts | 77° |
| 2026-05-01 14:18 | 48.55963 | 11.52195 | 10302 ft | 241 kts | 77° |
| 2026-05-01 14:18 | 48.56136 | 11.54705 | 10299 ft | 244 kts | 100° |
| 2026-05-01 14:18 | 48.55322 | 11.56927 | 10351 ft | 251 kts | 137° |
| 2026-05-01 14:18 | 48.54364 | 11.57964 | 10272 ft | 253 kts | 142° |
| 2026-05-01 14:19 | 48.52133 | 11.58810 | 10330 ft | 263 kts | 189° |
| 2026-05-01 14:19 | 48.50488 | 11.57573 | 10243 ft | 276 kts | 222° |
| 2026-05-01 14:19 | 48.49509 | 11.55067 | 9924 ft | 283 kts | 258° |
| 2026-05-01 14:19 | 48.49616 | 11.52138 | 9650 ft | 280 kts | 292° |
| 2026-05-01 14:20 | 48.50208 | 11.49396 | 9330 ft | 277 kts | 279° |
| 2026-05-01 14:20 | 48.48898 | 11.44326 | 8671 ft | 265 kts | 225° |
| 2026-05-01 14:20 | 48.47671 | 11.42294 | 8353 ft | 262 kts | 226° |
| 2026-05-01 14:21 | 48.46456 | 11.40274 | 8048 ft | 259 kts | 226° |
| 2026-05-01 14:21 | 48.45132 | 11.38534 | 7764 ft | 252 kts | 199° |
| 2026-05-01 14:21 | 48.43441 | 11.38228 | 7506 ft | 245 kts | 163° |
| 2026-05-01 14:22 | 48.40247 | 11.40161 | 6531 ft | 250 kts | 152° |
| 2026-05-01 14:22 | 48.38678 | 11.41250 | 6292 ft | 240 kts | 152° |
| 2026-05-01 14:22 | 48.37191 | 11.42304 | 5960 ft | 235 kts | 151° |
| 2026-05-01 14:22 | 48.35765 | 11.43384 | 5665 ft | 225 kts | 140° |
| 2026-05-01 14:23 | 48.34931 | 11.45200 | 5443 ft | 207 kts | 105° |
| 2026-05-01 14:23 | 48.34571 | 11.47240 | 5217 ft | 198 kts | 102° |
| 2026-05-01 14:23 | 48.34259 | 11.49228 | 4961 ft | 191 kts | 97° |
| 2026-05-01 14:23 | 48.34278 | 11.51185 | 4706 ft | 183 kts | 83° |
| 2026-05-01 14:24 | 48.34423 | 11.52975 | 4542 ft | 161 kts | 83° |
| 2026-05-01 14:24 | 48.34553 | 11.54595 | 4360 ft | 155 kts | 83° |
| 2026-05-01 14:24 | 48.34680 | 11.56204 | 4158 ft | 156 kts | 83° |
| 2026-05-01 14:24 | 48.34807 | 11.57815 | 3945 ft | 153 kts | 83° |
| 2026-05-01 14:25 | 48.34930 | 11.59384 | 3742 ft | 151 kts | 82° |
| 2026-05-01 14:25 | 48.35054 | 11.60955 | 3536 ft | 150 kts | 83° |
| 2026-05-01 14:25 | 48.35176 | 11.62515 | 3335 ft | 150 kts | 82° |
| 2026-05-01 14:25 | 48.35296 | 11.64056 | 3140 ft | 149 kts | 83° |
| 2026-05-01 14:26 | 48.35415 | 11.65615 | 2939 ft | 150 kts | 83° |
| 2026-05-01 14:26 | 48.35646 | 11.68686 | 2543 ft | 152 kts | 84° |
| 2026-05-01 14:26 | 48.35761 | 11.70164 | 2349 ft | 149 kts | 82° |
| 2026-05-01 14:27 | 48.35882 | 11.71663 | 2135 ft | 137 kts | 81° |
| 2026-05-01 14:27 | 48.36004 | 11.73076 | 1938 ft | 139 kts | 83° |
| 2026-05-01 14:27 | 48.36110 | 11.74542 | 1794 ft | 143 kts | 84° |
| 2026-05-01 14:28 | 48.36342 | 11.77478 | 1481 ft | 136 kts | 85° |
| 2026-05-01 14:28 | 48.36426 | 11.78710 | 1469 ft | 92 kts | 83° |
| 2026-05-01 14:28 | 48.36430 | 11.79318 | 1467 ft | 26 kts | 106° |
| 2026-05-01 14:28 | 48.36399 | 11.79443 | 1466 ft | 11 kts | 111° |
| 2026-05-01 14:29 | 48.36363 | 11.79566 | 1466 ft | 15 kts | 116° |
| 2026-05-01 14:29 | 48.36312 | 11.79739 | 1465 ft | 14 kts | 117° |
| 2026-05-01 14:30 | 48.36197 | 11.79246 | 1469 ft | 23 kts | 264° |
| 2026-05-01 14:30 | 48.36177 | 11.79004 | 1470 ft | 23 kts | 263° |
| 2026-05-01 14:30 | 48.36158 | 11.78762 | 1471 ft | 23 kts | 263° |
| 2026-05-01 14:31 | 48.36121 | 11.78261 | 1473 ft | 24 kts | 262° |
| 2026-05-01 14:31 | 48.36102 | 11.78000 | 1473 ft | 25 kts | 263° |
| 2026-05-01 14:31 | 48.36082 | 11.77780 | 1474 ft | 11 kts | 267° |
| 2026-05-01 14:31 | 48.36037 | 11.77664 | 1474 ft | 16 kts | 182° |
| 2026-05-01 14:32 | 48.35910 | 11.77685 | 1475 ft | 22 kts | 174° |
| 2026-05-01 14:32 | 48.35755 | 11.77712 | 1477 ft | 22 kts | 173° |
| 2026-05-01 14:32 | 48.35595 | 11.77740 | 1478 ft | 23 kts | 174° |
| 2026-05-01 14:32 | 48.35431 | 11.77768 | 1479 ft | 24 kts | 173° |
| 2026-05-01 14:33 | 48.35337 | 11.77878 | 1480 ft | 17 kts | 86° |
| 2026-05-01 14:33 | 48.35350 | 11.78065 | 1480 ft | 20 kts | 83° |
| 2026-05-01 14:33 | 48.35259 | 11.78175 | 1480 ft | 20 kts | 171° |
| 2026-05-01 14:33 | 48.35113 | 11.78202 | 1481 ft | 21 kts | 174° |
| 2026-05-01 14:34 | 48.35060 | 11.78238 | 1481 ft | 5 kts | 97° |
| 2026-05-01 14:34 | 48.35066 | 11.78302 | 1481 ft | 5 kts | 83° |
| 2026-05-01 14:34 | 48.35067 | 11.78321 | 1481 ft | 4 kts | 83° |
| 2026-05-01 14:34 | 48.35067 | 11.78324 | 1481 ft | 0 kts | 83° |